Terminal Aerodrome Forecast
Issued by NWS Corpus Christi, TX

Home | Current Version | Previous Version | Text Only | Print | Product List | Glossary On
Versions: 1 2 3 4 5 6 7 8 9 10 11 12 13 14 15 16
000
FTUS44 KCRP 190925 AAB
TAFCRP
TAF AMD
KCRP 190925Z 1909/2006 VRB05KT 6SM -SHRA BR SCT006 OVC018
      TEMPO 1909/1913 6SM -SHRA OVC006
     FM191400 31005KT P6SM OVC015
     FM191800 21004KT P6SM SCT025 BKN040=

USA.gov is the U.S. government's official web portal to all federal, state and local government web resources and services.